createdAt,value
2016-12-06T00:00:02.219Z,2.56
2016-12-06T00:00:28.307Z,2.54
2016-12-06T00:00:54.403Z,2.46
2016-12-06T00:01:20.484Z,2.47
2016-12-06T00:01:46.568Z,2.44
2016-12-06T00:02:12.662Z,2.44
2016-12-06T00:02:38.749Z,2.44
2016-12-06T00:03:04.832Z,2.46
2016-12-06T00:03:30.931Z,2.44
2016-12-06T00:03:57.046Z,2.36
2016-12-06T00:04:23.131Z,2.43
2016-12-06T00:04:49.222Z,2.36
2016-12-06T00:05:15.345Z,2.33
2016-12-06T00:05:41.426Z,2.32
2016-12-06T00:06:07.526Z,2.31
2016-12-06T00:06:33.610Z,2.29
2016-12-06T00:06:59.703Z,2.29
2016-12-06T00:07:25.797Z,2.32
2016-12-06T00:07:51.882Z,2.31
2016-12-06T00:08:17.979Z,2.25
2016-12-06T00:08:44.078Z,2.32
2016-12-06T00:09:10.156Z,2.29
2016-12-06T00:09:36.247Z,2.28
2016-12-06T00:10:02.340Z,2.32
2016-12-06T00:10:28.419Z,2.26
2016-12-06T00:10:54.506Z,2.29
2016-12-06T00:11:20.605Z,2.24
2016-12-06T00:11:46.686Z,2.14
2016-12-06T00:12:12.785Z,2.18
2016-12-06T00:12:38.863Z,2.14
2016-12-06T00:13:04.951Z,2.11
2016-12-06T00:13:31.048Z,2.17
2016-12-06T00:13:57.129Z,2.11
2016-12-06T00:14:23.213Z,2.15
2016-12-06T00:14:49.308Z,2.2
2016-12-06T00:15:15.394Z,2.18
2016-12-06T00:15:41.476Z,2.13
2016-12-06T00:16:07.575Z,2.15
2016-12-06T00:16:33.666Z,2.08
2016-12-06T00:16:59.768Z,2.08
2016-12-06T00:17:25.865Z,2.08
2016-12-06T00:17:51.952Z,2.11
2016-12-06T00:18:18.046Z,2.08
2016-12-06T00:18:44.131Z,2.1
2016-12-06T00:19:10.214Z,2.11
2016-12-06T00:19:36.318Z,2.13
2016-12-06T00:20:02.402Z,2.13
2016-12-06T00:20:28.487Z,2.1
2016-12-06T00:20:54.586Z,2.17
2016-12-06T00:21:20.677Z,2.28
2016-12-06T00:21:46.758Z,2.22
2016-12-06T00:22:12.856Z,2.33
2016-12-06T00:22:38.952Z,2.26
2016-12-06T00:23:05.037Z,2.25
2016-12-06T00:23:31.125Z,2.29
2016-12-06T00:23:57.212Z,2.32
2016-12-06T00:24:23.309Z,2.29
2016-12-06T00:24:49.398Z,2.32
2016-12-06T00:25:15.480Z,2.32
2016-12-06T00:25:41.572Z,2.26
2016-12-06T00:26:07.695Z,2.32
2016-12-06T00:26:33.778Z,2.32
2016-12-06T00:26:59.867Z,2.35
2016-12-06T00:27:25.962Z,2.32
2016-12-06T00:27:52.042Z,2.29
2016-12-06T00:28:18.132Z,2.32
2016-12-06T00:28:44.215Z,2.26
2016-12-06T00:29:10.308Z,2.32
2016-12-06T00:29:36.406Z,2.29
2016-12-06T00:30:02.514Z,2.31
2016-12-06T00:30:28.602Z,2.33
2016-12-06T00:30:54.699Z,2.38
2016-12-06T00:31:20.779Z,2.35
2016-12-06T00:31:46.865Z,2.35
2016-12-06T00:32:12.959Z,2.46
2016-12-06T00:32:39.041Z,2.43
2016-12-06T00:33:05.125Z,2.39
2016-12-06T00:33:31.251Z,2.32
2016-12-06T00:33:57.338Z,2.29
2016-12-06T00:34:23.433Z,2.33
2016-12-06T00:34:49.512Z,2.31
2016-12-06T00:35:15.600Z,2.29
2016-12-06T00:35:41.695Z,2.28
2016-12-06T00:36:07.779Z,2.28
2016-12-06T00:36:33.862Z,2.26
2016-12-06T00:36:59.956Z,2.26
2016-12-06T00:37:26.044Z,2.32
2016-12-06T00:37:52.127Z,2.15
2016-12-06T00:38:18.223Z,2.32
2016-12-06T00:38:44.315Z,2.2
2016-12-06T00:39:10.402Z,2.31
2016-12-06T00:39:36.499Z,2.29
2016-12-06T00:40:02.574Z,2.24
2016-12-06T00:40:28.678Z,2.17
2016-12-06T00:40:54.763Z,2.31
2016-12-06T00:41:20.847Z,2.28
2016-12-06T00:41:46.942Z,2.25
2016-12-06T00:42:13.035Z,2.31
2016-12-06T00:42:39.121Z,2.31
2016-12-06T00:43:05.217Z,2.31
2016-12-06T00:43:31.312Z,2.32
2016-12-06T00:43:57.391Z,2.32
2016-12-06T00:44:23.479Z,2.31
2016-12-06T00:44:49.570Z,2.33
2016-12-06T00:45:15.653Z,2.32
2016-12-06T00:45:41.737Z,2.33
2016-12-06T00:46:07.833Z,2.28
2016-12-06T00:46:33.916Z,2.35
2016-12-06T00:47:00.001Z,2.35
2016-12-06T00:47:26.096Z,2.33
2016-12-06T00:47:52.185Z,2.38
2016-12-06T00:48:18.264Z,2.29
2016-12-06T00:48:44.357Z,2.28
2016-12-06T00:49:10.445Z,2.33
2016-12-06T00:49:36.528Z,2.32
2016-12-06T00:50:02.623Z,2.32
2016-12-06T00:50:28.716Z,2.26
2016-12-06T00:50:54.803Z,2.32
2016-12-06T00:51:20.887Z,2.26
2016-12-06T00:51:46.966Z,2.32
2016-12-06T00:52:13.063Z,2.31
2016-12-06T00:52:39.152Z,2.46
2016-12-06T00:53:05.236Z,2.39
2016-12-06T00:53:31.325Z,2.39
2016-12-06T00:53:57.421Z,2.38
2016-12-06T00:54:23.491Z,2.32
2016-12-06T00:54:49.578Z,2.33
2016-12-06T00:55:15.668Z,2.33
2016-12-06T00:55:41.752Z,2.36
2016-12-06T00:56:07.842Z,2.43
2016-12-06T00:56:33.925Z,2.31
2016-12-06T00:57:00.017Z,2.31
2016-12-06T00:57:26.115Z,2.31
2016-12-06T00:57:52.191Z,2.2
2016-12-06T00:58:18.284Z,2.32
2016-12-06T00:58:44.383Z,2.28
2016-12-06T00:59:10.495Z,2.22
2016-12-06T00:59:36.580Z,2.14
2016-12-06T01:00:02.672Z,2.14
2016-12-06T01:00:28.758Z,2.17
2016-12-06T01:00:54.834Z,2.28
2016-12-06T01:01:20.930Z,2.13
2016-12-06T01:01:47.020Z,2.15
2016-12-06T01:02:13.143Z,2.15
2016-12-06T01:02:39.224Z,2.15
2016-12-06T01:03:05.313Z,2.15
2016-12-06T01:03:31.410Z,2.08
2016-12-06T01:03:57.498Z,2.08
2016-12-06T01:04:23.576Z,2.1
2016-12-06T01:04:49.676Z,2.11
2016-12-06T01:05:15.763Z,2.08
2016-12-06T01:05:41.844Z,2.06
2016-12-06T01:06:07.940Z,2.08
2016-12-06T01:06:34.030Z,2.1
2016-12-06T01:07:00.115Z,2.11
2016-12-06T01:07:26.212Z,2.13
2016-12-06T01:07:52.289Z,2.13
2016-12-06T01:08:18.391Z,2.13
2016-12-06T01:08:44.477Z,2.15
2016-12-06T01:09:10.560Z,2.18
2016-12-06T01:09:36.659Z,2.22
2016-12-06T01:10:02.747Z,2.28
2016-12-06T01:10:28.831Z,2.25
2016-12-06T01:10:54.923Z,2.26
2016-12-06T01:11:21.015Z,2.2
2016-12-06T01:11:47.098Z,2.31
2016-12-06T01:12:13.188Z,2.17
2016-12-06T01:12:39.308Z,2.35
2016-12-06T01:13:05.389Z,2.31
2016-12-06T01:13:31.480Z,2.29
2016-12-06T01:13:57.565Z,2.28
2016-12-06T01:14:23.660Z,2.31
2016-12-06T01:14:49.754Z,2.28
2016-12-06T01:15:15.830Z,2.2
2016-12-06T01:15:41.916Z,2.14
2016-12-06T01:16:08.014Z,2.11
2016-12-06T01:16:34.099Z,2.08
2016-12-06T01:17:00.182Z,2.08
2016-12-06T01:17:26.277Z,2.13
2016-12-06T01:17:52.364Z,2.08
2016-12-06T01:18:18.445Z,2.07
2016-12-06T01:18:44.534Z,2.1
2016-12-06T01:19:10.624Z,2.15
2016-12-06T01:19:36.714Z,2.08
2016-12-06T01:20:02.801Z,2.14
2016-12-06T01:20:28.895Z,2.14
2016-12-06T01:20:54.994Z,2.13
2016-12-06T01:21:21.076Z,2.1
2016-12-06T01:21:47.183Z,2.14
2016-12-06T01:22:13.283Z,2.13
2016-12-06T01:22:39.370Z,2.14
2016-12-06T01:23:05.451Z,2.13
2016-12-06T01:23:31.545Z,2.15
2016-12-06T01:23:57.636Z,2.24
2016-12-06T01:24:23.728Z,2.25
2016-12-06T01:24:49.813Z,2.24
2016-12-06T01:25:15.899Z,2.24
2016-12-06T01:25:41.995Z,2.29
2016-12-06T01:26:08.082Z,2.26
2016-12-06T01:26:34.166Z,2.26
2016-12-06T01:27:00.261Z,2.22
2016-12-06T01:27:26.644Z,2.18
2016-12-06T01:27:52.727Z,2.22
2016-12-06T01:28:18.824Z,2.13
2016-12-06T01:28:44.917Z,2.24
2016-12-06T01:29:10.997Z,2.11
2016-12-06T01:29:37.086Z,2.14
2016-12-06T01:30:03.186Z,2.11
2016-12-06T01:30:29.269Z,2.13
2016-12-06T01:30:55.357Z,2.1
2016-12-06T01:31:21.451Z,2.1
2016-12-06T01:31:47.537Z,2.11
2016-12-06T01:32:13.616Z,2.11
2016-12-06T01:32:39.717Z,2.13
2016-12-06T01:33:05.805Z,2.11
2016-12-06T01:33:31.890Z,2.2
2016-12-06T01:33:57.986Z,2.24
2016-12-06T01:34:24.078Z,2.24
2016-12-06T01:34:50.155Z,2.31
2016-12-06T01:35:16.249Z,2.31
2016-12-06T01:35:42.327Z,2.32
2016-12-06T01:36:08.425Z,2.31
2016-12-06T01:36:34.512Z,2.29
2016-12-06T01:37:00.596Z,2.35
2016-12-06T01:37:26.692Z,2.42
2016-12-06T01:37:52.782Z,2.33
2016-12-06T01:38:18.865Z,2.33
2016-12-06T01:38:44.961Z,2.38
2016-12-06T01:39:11.083Z,2.36
2016-12-06T01:39:37.160Z,2.31
2016-12-06T01:40:03.249Z,2.38
2016-12-06T01:40:29.344Z,2.28
2016-12-06T01:40:55.421Z,2.28
2016-12-06T01:41:21.510Z,2.47
2016-12-06T01:41:47.593Z,2.28
2016-12-06T01:42:13.689Z,2.31
2016-12-06T01:42:39.788Z,2.33
2016-12-06T01:43:05.866Z,2.31
2016-12-06T01:43:31.957Z,2.31
2016-12-06T01:43:58.052Z,2.2
2016-12-06T01:44:24.132Z,2.2
2016-12-06T01:44:50.219Z,2.15
2016-12-06T01:45:16.316Z,2.14
2016-12-06T01:45:42.399Z,2.04
2016-12-06T01:46:08.482Z,2
2016-12-06T01:46:34.577Z,1.87
2016-12-06T01:47:00.666Z,1.81
2016-12-06T01:47:26.884Z,1.84
2016-12-06T01:47:52.965Z,1.84
2016-12-06T01:48:19.053Z,1.8
2016-12-06T01:48:45.146Z,1.77
2016-12-06T01:49:11.236Z,1.71
2016-12-06T01:49:37.317Z,1.71
2016-12-06T01:50:03.418Z,1.67
2016-12-06T01:50:29.501Z,1.66
2016-12-06T01:50:55.582Z,1.59
2016-12-06T01:51:21.681Z,1.55
2016-12-06T01:51:47.770Z,1.58
2016-12-06T01:52:13.862Z,1.58
2016-12-06T01:52:39.944Z,1.55
2016-12-06T01:53:06.021Z,1.59
2016-12-06T01:53:32.120Z,1.53
2016-12-06T01:53:58.206Z,1.56
2016-12-06T01:54:24.290Z,1.53
2016-12-06T01:54:50.385Z,1.56
2016-12-06T01:55:16.474Z,1.42
2016-12-06T01:55:42.553Z,1.44
2016-12-06T01:56:08.649Z,1.45
2016-12-06T01:56:34.743Z,1.48
2016-12-06T01:57:00.825Z,1.49
2016-12-06T01:57:27.214Z,1.48
2016-12-06T01:57:53.295Z,1.45
2016-12-06T01:58:19.394Z,1.44
2016-12-06T01:58:45.482Z,1.48
2016-12-06T01:59:11.560Z,1.44
2016-12-06T01:59:37.655Z,1.34
2016-12-06T02:00:03.748Z,1.34
2016-12-06T02:00:29.825Z,1.3
2016-12-06T02:00:55.916Z,1.3
2016-12-06T02:01:22.010Z,1.34
2016-12-06T02:01:48.091Z,1.35
2016-12-06T02:02:14.174Z,1.38
2016-12-06T02:02:40.269Z,1.31
2016-12-06T02:03:06.352Z,1.26
2016-12-06T02:03:32.444Z,1.24
2016-12-06T02:03:58.521Z,1.24
2016-12-06T02:04:24.613Z,1.32
2016-12-06T02:04:50.703Z,1.32
2016-12-06T02:05:16.787Z,1.26
2016-12-06T02:05:42.873Z,1.24
2016-12-06T02:06:08.971Z,1.26
2016-12-06T02:06:35.054Z,1.22
2016-12-06T02:07:01.154Z,1.22
2016-12-06T02:07:27.279Z,1.35
2016-12-06T02:07:53.360Z,1.31
2016-12-06T02:08:19.445Z,1.37
2016-12-06T02:08:45.539Z,1.45
2016-12-06T02:09:11.620Z,1.5
2016-12-06T02:09:37.717Z,1.48
2016-12-06T02:10:03.795Z,1.45
2016-12-06T02:10:29.873Z,1.58
2016-12-06T02:10:55.971Z,1.5
2016-12-06T02:11:22.055Z,1.56
2016-12-06T02:11:48.141Z,1.59
2016-12-06T02:12:14.241Z,1.66
2016-12-06T02:12:40.324Z,1.56
2016-12-06T02:13:06.410Z,1.58
2016-12-06T02:13:32.504Z,1.6
2016-12-06T02:13:58.598Z,1.58
2016-12-06T02:14:24.676Z,1.56
2016-12-06T02:14:50.773Z,1.55
2016-12-06T02:15:16.863Z,1.53
2016-12-06T02:15:42.943Z,1.58
2016-12-06T02:16:09.031Z,1.6
2016-12-06T02:16:35.123Z,1.63
2016-12-06T02:17:01.203Z,1.59
2016-12-06T02:17:27.277Z,1.63
2016-12-06T02:17:53.478Z,1.68
2016-12-06T02:18:19.563Z,1.7
2016-12-06T02:18:45.649Z,1.76
2016-12-06T02:19:11.744Z,1.77
2016-12-06T02:19:37.833Z,1.77
2016-12-06T02:20:03.928Z,1.78
2016-12-06T02:20:30.014Z,1.76
2016-12-06T02:20:56.093Z,1.77
2016-12-06T02:21:22.219Z,1.77
2016-12-06T02:21:48.302Z,1.7
2016-12-06T02:22:14.379Z,1.74
2016-12-06T02:22:40.476Z,1.7
2016-12-06T02:23:06.567Z,1.8
2016-12-06T02:23:32.650Z,1.66
2016-12-06T02:23:58.745Z,1.77
2016-12-06T02:24:24.838Z,1.71
2016-12-06T02:24:50.924Z,1.77
2016-12-06T02:25:17.015Z,1.77
2016-12-06T02:25:43.098Z,1.76
2016-12-06T02:26:09.194Z,1.8
2016-12-06T02:26:35.306Z,1.77
2016-12-06T02:27:01.393Z,1.89
2016-12-06T02:27:27.488Z,1.89
2016-12-06T02:27:53.883Z,1.84
2016-12-06T02:28:19.961Z,1.85
2016-12-06T02:28:46.050Z,1.91
2016-12-06T02:29:12.146Z,1.85
2016-12-06T02:29:38.229Z,1.84
2016-12-06T02:30:04.320Z,1.8
2016-12-06T02:30:30.416Z,1.68
2016-12-06T02:30:56.500Z,1.6
2016-12-06T02:31:22.595Z,1.49
2016-12-06T02:31:48.675Z,1.45
2016-12-06T02:32:14.790Z,1.31
2016-12-06T02:32:40.881Z,1.3
2016-12-06T02:33:06.963Z,1.23
2016-12-06T02:33:33.051Z,1.1
2016-12-06T02:33:59.146Z,1.04
2016-12-06T02:34:25.236Z,1.08
2016-12-06T02:34:51.318Z,1.02
2016-12-06T02:35:17.413Z,0.95
2016-12-06T02:35:43.497Z,0.96
2016-12-06T02:36:09.580Z,0.91
2016-12-06T02:36:35.675Z,0.88
2016-12-06T02:37:01.755Z,0.91
2016-12-06T02:37:27.853Z,0.99
2016-12-06T02:37:53.930Z,0.94
2016-12-06T02:38:20.013Z,1.02
2016-12-06T02:38:46.114Z,1.12
2016-12-06T02:39:12.201Z,1.06
2016-12-06T02:39:38.287Z,1.24
2016-12-06T02:40:04.381Z,1.23
2016-12-06T02:40:30.475Z,1.22
2016-12-06T02:40:56.555Z,1.35
2016-12-06T02:41:22.647Z,1.3
2016-12-06T02:41:48.738Z,1.3
2016-12-06T02:42:14.826Z,1.38
2016-12-06T02:42:40.911Z,1.4
2016-12-06T02:43:06.988Z,1.52
2016-12-06T02:43:33.087Z,1.48
2016-12-06T02:43:59.180Z,1.53
2016-12-06T02:44:25.264Z,1.5
2016-12-06T02:44:51.361Z,1.52
2016-12-06T02:45:17.457Z,1.6
2016-12-06T02:45:43.534Z,1.62
2016-12-06T02:46:09.621Z,1.56
2016-12-06T02:46:35.711Z,1.56
2016-12-06T02:47:01.793Z,1.55
2016-12-06T02:47:27.882Z,1.6
2016-12-06T02:47:54.072Z,1.62
2016-12-06T02:48:20.163Z,1.59
2016-12-06T02:48:46.263Z,1.62
2016-12-06T02:49:12.342Z,1.7
2016-12-06T02:49:38.431Z,1.7
2016-12-06T02:50:04.528Z,1.77
2016-12-06T02:50:30.605Z,1.66
2016-12-06T02:50:56.693Z,1.73
2016-12-06T02:51:22.788Z,1.76
2016-12-06T02:51:48.872Z,1.76
2016-12-06T02:52:14.957Z,1.76
2016-12-06T02:52:41.052Z,1.77
2016-12-06T02:53:07.141Z,1.8
2016-12-06T02:53:33.235Z,1.87
2016-12-06T02:53:59.312Z,1.78
2016-12-06T02:54:25.396Z,1.84
2016-12-06T02:54:51.493Z,1.87
2016-12-06T02:55:17.579Z,1.89
2016-12-06T02:55:43.659Z,1.87
2016-12-06T02:56:09.759Z,1.78
2016-12-06T02:56:35.850Z,1.8
2016-12-06T02:57:01.932Z,2
2016-12-06T02:57:28.026Z,1.95
2016-12-06T02:57:54.115Z,1.97
2016-12-06T02:58:20.193Z,1.99
2016-12-06T02:58:46.282Z,1.91
2016-12-06T02:59:12.380Z,1.99
2016-12-06T02:59:38.456Z,1.89
2016-12-06T03:00:04.546Z,1.95
2016-12-06T03:00:30.640Z,1.97
2016-12-06T03:00:56.724Z,1.89
2016-12-06T03:01:22.832Z,1.97
2016-12-06T03:01:48.932Z,1.94
2016-12-06T03:02:15.016Z,1.92
2016-12-06T03:02:41.096Z,2.02
2016-12-06T03:03:07.192Z,1.97
2016-12-06T03:03:33.273Z,1.97
2016-12-06T03:03:59.349Z,2.02
2016-12-06T03:04:25.447Z,2
2016-12-06T03:04:51.527Z,1.95
2016-12-06T03:05:17.626Z,1.99
2016-12-06T03:05:43.705Z,1.94
2016-12-06T03:06:09.793Z,2
2016-12-06T03:06:35.885Z,1.95
2016-12-06T03:07:01.970Z,2
2016-12-06T03:07:28.053Z,2.06
2016-12-06T03:07:54.149Z,2.06
2016-12-06T03:08:20.240Z,2.07
2016-12-06T03:08:46.319Z,2.13
2016-12-06T03:09:12.410Z,2.07
2016-12-06T03:09:38.505Z,2.1
2016-12-06T03:10:04.592Z,2.1
2016-12-06T03:10:30.679Z,2.15
2016-12-06T03:10:56.759Z,2.1
2016-12-06T03:11:22.858Z,2.11
2016-12-06T03:11:48.943Z,2.08
2016-12-06T03:12:15.024Z,2.1
2016-12-06T03:12:41.116Z,2.07
2016-12-06T03:13:07.214Z,2
2016-12-06T03:13:33.293Z,2
2016-12-06T03:13:59.384Z,1.99
2016-12-06T03:14:25.480Z,2
2016-12-06T03:14:51.559Z,2.1
2016-12-06T03:15:17.646Z,2.07
2016-12-06T03:15:43.730Z,2.11
2016-12-06T03:16:09.823Z,2.07
2016-12-06T03:16:35.918Z,2.08
2016-12-06T03:17:02.000Z,2.13
2016-12-06T03:17:28.092Z,2.04
2016-12-06T03:17:54.187Z,1.94
2016-12-06T03:18:20.379Z,1.88
2016-12-06T03:18:46.469Z,2
2016-12-06T03:19:12.552Z,1.97
2016-12-06T03:19:38.641Z,1.95
2016-12-06T03:20:04.739Z,1.87
2016-12-06T03:20:30.813Z,1.87
2016-12-06T03:20:56.902Z,1.87
2016-12-06T03:21:22.985Z,1.76
2016-12-06T03:21:49.084Z,1.81
2016-12-06T03:22:15.177Z,1.8
2016-12-06T03:22:41.252Z,1.74
2016-12-06T03:23:07.345Z,1.8
2016-12-06T03:23:33.435Z,1.78
2016-12-06T03:23:59.515Z,1.78
2016-12-06T03:24:25.603Z,1.74
2016-12-06T03:24:51.698Z,1.68
2016-12-06T03:25:17.777Z,1.8
2016-12-06T03:25:43.864Z,1.81
2016-12-06T03:26:09.960Z,1.78
2016-12-06T03:26:36.048Z,1.7
2016-12-06T03:27:02.143Z,1.63
2016-12-06T03:27:28.223Z,1.6
2016-12-06T03:27:54.316Z,1.58
2016-12-06T03:28:20.408Z,1.6
2016-12-06T03:28:46.487Z,1.48
2016-12-06T03:29:12.575Z,1.58
2016-12-06T03:29:38.675Z,1.53
2016-12-06T03:30:04.761Z,1.52
2016-12-06T03:30:30.840Z,1.44
2016-12-06T03:30:56.932Z,1.37
2016-12-06T03:31:23.022Z,1.37
2016-12-06T03:31:49.105Z,1.34
2016-12-06T03:32:15.203Z,1.3
2016-12-06T03:32:41.287Z,1.17
2016-12-06T03:33:07.382Z,1.16
2016-12-06T03:33:33.466Z,1.08
2016-12-06T03:33:59.550Z,1.08
2016-12-06T03:34:25.645Z,1.13
2016-12-06T03:34:51.724Z,1.19
2016-12-06T03:35:17.805Z,1.22
2016-12-06T03:35:43.903Z,1.26
2016-12-06T03:36:09.996Z,1.37
2016-12-06T03:36:36.077Z,1.34
2016-12-06T03:37:02.171Z,1.41
2016-12-06T03:37:28.264Z,1.42
2016-12-06T03:37:54.344Z,1.32
2016-12-06T03:38:20.433Z,1.35
2016-12-06T03:38:46.514Z,1.35
2016-12-06T03:39:12.611Z,1.3
2016-12-06T03:39:38.723Z,1.32
2016-12-06T03:40:04.802Z,1.26
2016-12-06T03:40:30.895Z,1.28
2016-12-06T03:40:56.983Z,1.26
2016-12-06T03:41:23.064Z,1.19
2016-12-06T03:41:49.156Z,1.13
2016-12-06T03:42:15.251Z,1.05
2016-12-06T03:42:41.334Z,1.02
2016-12-06T03:43:07.422Z,1.04
2016-12-06T03:43:33.515Z,0.94
2016-12-06T03:43:59.601Z,0.8
2016-12-06T03:44:25.675Z,0.78
2016-12-06T03:44:51.776Z,0.77
2016-12-06T03:45:17.859Z,0.65
2016-12-06T03:45:43.939Z,0.66
2016-12-06T03:46:10.031Z,0.62
2016-12-06T03:46:36.118Z,0.68
2016-12-06T03:47:02.197Z,0.7
2016-12-06T03:47:28.293Z,0.65
2016-12-06T03:47:54.392Z,0.66
2016-12-06T03:48:20.468Z,0.62
2016-12-06T03:48:46.556Z,0.63
2016-12-06T03:49:12.640Z,0.49
2016-12-06T03:49:38.737Z,0.47
2016-12-06T03:50:04.825Z,0.39
2016-12-06T03:50:30.905Z,0.37
2016-12-06T03:50:56.999Z,0.37
2016-12-06T03:51:23.094Z,0.31
2016-12-06T03:51:49.166Z,0.34
2016-12-06T03:52:15.255Z,0.25
2016-12-06T03:52:41.347Z,0.23
2016-12-06T03:53:07.431Z,0.21
2016-12-06T03:53:33.518Z,0.19
2016-12-06T03:53:59.615Z,0.16
2016-12-06T03:54:25.701Z,0.12
2016-12-06T03:54:51.796Z,0.04
2016-12-06T03:55:17.873Z,0.11
2016-12-06T03:55:43.962Z,0.01
2016-12-06T03:56:10.058Z,0.05
2016-12-06T03:56:36.137Z,0.07
2016-12-06T03:57:02.222Z,0.03
2016-12-06T03:57:28.325Z,0.1
2016-12-06T03:57:54.409Z,0.08
2016-12-06T03:58:20.490Z,-0.06
2016-12-06T03:58:46.587Z,0.04
2016-12-06T03:59:12.665Z,-0.07
2016-12-06T03:59:38.744Z,0.08
2016-12-06T04:00:04.837Z,0
2016-12-06T04:00:30.920Z,0.04
2016-12-06T04:00:57.016Z,0.03
2016-12-06T04:01:23.099Z,0.15
2016-12-06T04:01:49.180Z,0.08
2016-12-06T04:02:15.277Z,0.12
2016-12-06T04:02:41.358Z,0.16
2016-12-06T04:03:07.436Z,0.25
2016-12-06T04:03:33.533Z,0.11
2016-12-06T04:03:59.620Z,0.37
2016-12-06T04:04:25.703Z,0.32
2016-12-06T04:04:51.791Z,0.39
2016-12-06T04:05:17.888Z,0.49
2016-12-06T04:05:43.958Z,0.46
2016-12-06T04:06:10.047Z,0.49
2016-12-06T04:06:36.139Z,0.52
2016-12-06T04:07:02.228Z,0.63
2016-12-06T04:07:28.301Z,0.65
2016-12-06T04:07:54.393Z,0.66
2016-12-06T04:08:20.472Z,0.68
2016-12-06T04:08:46.555Z,0.69
2016-12-06T04:09:12.654Z,0.76
2016-12-06T04:09:38.742Z,0.74
2016-12-06T04:10:04.825Z,0.66
2016-12-06T04:10:30.920Z,0.65
2016-12-06T04:10:57.010Z,0.65
2016-12-06T04:11:23.100Z,0.66
2016-12-06T04:11:49.183Z,0.74
2016-12-06T04:12:15.264Z,0.78
2016-12-06T04:12:41.363Z,0.83
2016-12-06T04:13:07.448Z,0.8
2016-12-06T04:13:33.536Z,0.86
2016-12-06T04:13:59.630Z,0.91
2016-12-06T04:14:25.722Z,0.95
2016-12-06T04:14:51.803Z,1.02
2016-12-06T04:15:17.889Z,0.98
2016-12-06T04:15:43.979Z,1.01
2016-12-06T04:16:10.054Z,1.02
2016-12-06T04:16:36.147Z,1.14
2016-12-06T04:17:02.228Z,1.1
2016-12-06T04:17:28.325Z,1.05
2016-12-06T04:17:54.411Z,1.1
2016-12-06T04:18:20.494Z,1.06
2016-12-06T04:18:46.688Z,1.05
2016-12-06T04:19:12.780Z,1.12
2016-12-06T04:19:38.860Z,1.16
2016-12-06T04:20:04.953Z,1.22
2016-12-06T04:20:31.077Z,1.22
2016-12-06T04:20:57.159Z,1.22
2016-12-06T04:21:23.248Z,1.24
2016-12-06T04:21:49.340Z,1.22
2016-12-06T04:22:15.443Z,1.16
2016-12-06T04:22:41.532Z,1.16
2016-12-06T04:23:07.610Z,1.19
2016-12-06T04:23:33.704Z,1.14
2016-12-06T04:23:59.796Z,1.19
2016-12-06T04:24:25.879Z,1.23
2016-12-06T04:24:51.968Z,1.14
2016-12-06T04:25:18.063Z,1.17
2016-12-06T04:25:44.149Z,1.17
2016-12-06T04:26:10.228Z,1.14
2016-12-06T04:26:36.326Z,1.17
2016-12-06T04:27:02.416Z,1.13
2016-12-06T04:27:28.495Z,1.08
2016-12-06T04:27:54.592Z,0.98
2016-12-06T04:28:20.684Z,1.02
2016-12-06T04:28:46.760Z,1.06
2016-12-06T04:29:12.851Z,0.95
2016-12-06T04:29:38.944Z,0.92
2016-12-06T04:30:05.028Z,0.77
2016-12-06T04:30:31.118Z,0.74
2016-12-06T04:30:57.214Z,0.77
2016-12-06T04:31:23.298Z,0.8
2016-12-06T04:31:49.376Z,0.81
2016-12-06T04:32:15.476Z,0.83
2016-12-06T04:32:41.560Z,0.68
2016-12-06T04:33:07.639Z,0.7
2016-12-06T04:33:33.731Z,0.81
2016-12-06T04:33:59.815Z,0.81
2016-12-06T04:34:25.910Z,0.83
2016-12-06T04:34:51.989Z,0.77
2016-12-06T04:35:18.078Z,0.86
2016-12-06T04:35:44.185Z,0.92
2016-12-06T04:36:10.251Z,0.99
2016-12-06T04:36:36.329Z,0.91
2016-12-06T04:37:02.424Z,0.95
2016-12-06T04:37:28.510Z,0.98
2016-12-06T04:37:54.591Z,1.01
2016-12-06T04:38:20.689Z,1.06
2016-12-06T04:38:46.775Z,0.92
2016-12-06T04:39:12.865Z,0.95
2016-12-06T04:39:38.948Z,1.05
2016-12-06T04:40:05.025Z,0.91
2016-12-06T04:40:31.124Z,0.91
2016-12-06T04:40:57.211Z,0.83
2016-12-06T04:41:23.293Z,0.8
2016-12-06T04:41:49.387Z,0.63
2016-12-06T04:42:15.476Z,0.62
2016-12-06T04:42:41.555Z,0.68
2016-12-06T04:43:07.650Z,0.7
2016-12-06T04:43:33.743Z,0.77
2016-12-06T04:43:59.818Z,0.8
2016-12-06T04:44:25.907Z,0.78
2016-12-06T04:44:51.983Z,0.66
2016-12-06T04:45:18.078Z,0.7
2016-12-06T04:45:44.166Z,0.73
2016-12-06T04:46:10.247Z,0.65
2016-12-06T04:46:36.340Z,0.69
2016-12-06T04:47:02.439Z,0.59
2016-12-06T04:47:28.511Z,0.6
2016-12-06T04:47:54.601Z,0.59
2016-12-06T04:48:20.701Z,0.63
2016-12-06T04:48:46.781Z,0.59
2016-12-06T04:49:12.963Z,0.66
2016-12-06T04:49:39.057Z,0.66
2016-12-06T04:50:05.140Z,0.59
2016-12-06T04:50:31.237Z,0.59
2016-12-06T04:50:57.319Z,0.56
2016-12-06T04:51:23.411Z,0.44
2016-12-06T04:51:49.511Z,0.44
2016-12-06T04:52:15.594Z,0.49
2016-12-06T04:52:41.705Z,0.46
2016-12-06T04:53:07.799Z,0.43
2016-12-06T04:53:33.885Z,0.34
2016-12-06T04:54:00.263Z,0.43
2016-12-06T04:54:26.361Z,0.43
2016-12-06T04:54:52.445Z,0.49
2016-12-06T04:55:18.530Z,0.47
2016-12-06T04:55:44.625Z,0.39
2016-12-06T04:56:10.711Z,0.46
2016-12-06T04:56:36.807Z,0.36
2016-12-06T04:57:02.885Z,0.37
2016-12-06T04:57:28.965Z,0.32
2016-12-06T04:57:55.062Z,0.41
2016-12-06T04:58:21.150Z,0.37
2016-12-06T04:58:47.229Z,0.36
2016-12-06T04:59:13.324Z,0.36
2016-12-06T04:59:39.413Z,0.28
2016-12-06T05:00:05.491Z,0.22
2016-12-06T05:00:31.580Z,0.29
2016-12-06T05:00:57.679Z,0.21
2016-12-06T05:01:23.759Z,0.25
2016-12-06T05:01:49.844Z,0.23
2016-12-06T05:02:15.928Z,0.16
2016-12-06T05:02:42.022Z,0.21
2016-12-06T05:03:08.139Z,0.19
2016-12-06T05:03:34.219Z,0.15
2016-12-06T05:04:00.309Z,0.15
2016-12-06T05:04:26.406Z,0.11
2016-12-06T05:04:52.480Z,0.07
2016-12-06T05:05:18.566Z,0.03
2016-12-06T05:05:44.661Z,0.05
2016-12-06T05:06:10.738Z,0.12
2016-12-06T05:06:36.824Z,0.22
2016-12-06T05:07:02.910Z,0.28
2016-12-06T05:07:29.003Z,0.18
2016-12-06T05:07:55.100Z,0.39
2016-12-06T05:08:21.171Z,0.39
2016-12-06T05:08:47.264Z,0.41
2016-12-06T05:09:13.353Z,0.49
2016-12-06T05:09:39.428Z,0.6
2016-12-06T05:10:05.518Z,0.63
2016-12-06T05:10:31.613Z,0.69
2016-12-06T05:10:57.748Z,0.69
2016-12-06T05:11:23.827Z,0.63
2016-12-06T05:11:49.927Z,0.63
2016-12-06T05:12:16.015Z,0.65
2016-12-06T05:12:42.096Z,0.66
2016-12-06T05:13:08.193Z,0.63
2016-12-06T05:13:34.284Z,0.76
2016-12-06T05:14:00.366Z,0.69
2016-12-06T05:14:26.460Z,0.66
2016-12-06T05:14:52.557Z,0.68
2016-12-06T05:15:18.636Z,0.74
2016-12-06T05:15:44.728Z,0.73
2016-12-06T05:16:10.823Z,0.7
2016-12-06T05:16:36.910Z,0.8
2016-12-06T05:17:02.999Z,0.83
2016-12-06T05:17:29.093Z,0.8
2016-12-06T05:17:55.179Z,0.86
2016-12-06T05:18:21.275Z,0.86
2016-12-06T05:18:47.354Z,0.98
2016-12-06T05:19:13.545Z,0.98
2016-12-06T05:19:39.639Z,0.98
2016-12-06T05:20:05.721Z,1.02
2016-12-06T05:20:31.810Z,0.99
2016-12-06T05:20:57.931Z,1.12
2016-12-06T05:21:24.012Z,1.1
2016-12-06T05:21:50.093Z,1.06
2016-12-06T05:22:16.195Z,1.12
2016-12-06T05:22:42.281Z,1.13
2016-12-06T05:23:08.362Z,1.17
2016-12-06T05:23:34.459Z,1.24
2016-12-06T05:24:00.539Z,1.14
2016-12-06T05:24:26.635Z,1.16
2016-12-06T05:24:52.717Z,1.19
2016-12-06T05:25:18.792Z,1.19
2016-12-06T05:25:44.892Z,1.23
2016-12-06T05:26:10.979Z,1.28
2016-12-06T05:26:37.060Z,1.23
2016-12-06T05:27:03.158Z,1.32
2016-12-06T05:27:29.253Z,1.23
2016-12-06T05:27:55.333Z,1.35
2016-12-06T05:28:21.423Z,1.32
2016-12-06T05:28:47.519Z,1.34
2016-12-06T05:29:13.605Z,1.35
2016-12-06T05:29:39.720Z,1.35
2016-12-06T05:30:05.801Z,1.34
2016-12-06T05:30:31.897Z,1.28
2016-12-06T05:30:57.980Z,1.31
2016-12-06T05:31:24.059Z,1.31
2016-12-06T05:31:50.150Z,1.32
2016-12-06T05:32:16.243Z,1.32
2016-12-06T05:32:42.317Z,1.3
2016-12-06T05:33:08.406Z,1.32
2016-12-06T05:33:34.499Z,1.38
2016-12-06T05:34:00.581Z,1.41
2016-12-06T05:34:26.669Z,1.42
2016-12-06T05:34:52.757Z,1.42
2016-12-06T05:35:18.879Z,1.38
2016-12-06T05:35:44.970Z,1.42
2016-12-06T05:36:11.050Z,1.42
2016-12-06T05:36:37.139Z,1.44
2016-12-06T05:37:03.230Z,1.52
2016-12-06T05:37:29.309Z,1.45
2016-12-06T05:37:55.393Z,1.37
2016-12-06T05:38:21.486Z,1.2
2016-12-06T05:38:47.568Z,1.12
2016-12-06T05:39:13.643Z,0.98
2016-12-06T05:39:39.743Z,0.96
2016-12-06T05:40:05.831Z,0.87
2016-12-06T05:40:31.926Z,0.81
2016-12-06T05:40:58.009Z,0.84
2016-12-06T05:41:24.095Z,0.83
2016-12-06T05:41:50.184Z,0.84
2016-12-06T05:42:16.265Z,0.8
2016-12-06T05:42:42.344Z,0.76
2016-12-06T05:43:08.440Z,0.74
2016-12-06T05:43:34.528Z,0.83
2016-12-06T05:44:00.608Z,0.83
2016-12-06T05:44:26.701Z,0.81
2016-12-06T05:44:52.793Z,0.81
2016-12-06T05:45:18.867Z,0.88
2016-12-06T05:45:44.957Z,0.98
2016-12-06T05:46:11.039Z,0.99
2016-12-06T05:46:37.135Z,0.99
2016-12-06T05:47:03.221Z,0.95
2016-12-06T05:47:29.301Z,1.05
2016-12-06T05:47:55.394Z,0.99
2016-12-06T05:48:21.483Z,1.08